Time;durP1;ratioP1;P1;durP2;ratioP2;P2;SDS_P1;SDS_P2;PMS_P1;PMS_P2;Temp;Humidity;BMP_temperature;BMP_pressure;BME280_temperature;BME280_humidity;BME280_pressure;Samples;Min_cycle;Max_cycle;Signal;HPM_P1;HPM_P2
2021/04/24 00:00:20;;;;;;;34.17;11.93;;;;;;;2.08;100.00;98620.66;5051255;28;20466;-77
2021/04/24 00:02:46;;;;;;;22.52;11.13;;;;;;;2.05;100.00;98620.31;5017999;28;20049;-77
2021/04/24 00:05:22;;;;;;;28.73;10.80;;;;;;;2.07;100.00;98615.53;5055912;28;20528;-78
2021/04/24 00:07:51;;;;;;;27.33;10.75;;;;;;;2.07;100.00;98612.88;5054157;28;20037;-78
2021/04/24 00:10:18;;;;;;;25.75;10.65;;;;;;;1.91;100.00;98616.28;5021441;28;20626;-78
2021/04/24 00:12:44;;;;;;;20.48;9.90;;;;;;;1.90;100.00;98604.78;5037958;28;20150;-78
2021/04/24 00:15:13;;;;;;;24.00;10.70;;;;;;;1.96;100.00;98614.53;5056394;28;20049;-79
2021/04/24 00:17:42;;;;;;;29.63;11.43;;;;;;;2.00;100.00;98613.00;5037660;28;20168;-78
2021/04/24 00:20:13;;;;;;;26.63;11.27;;;;;;;1.92;100.00;98613.38;5057231;28;20071;-79
2021/04/24 00:22:40;;;;;;;26.50;11.48;;;;;;;1.90;100.00;98620.81;5056178;28;20049;-78
2021/04/24 00:25:08;;;;;;;26.08;10.68;;;;;;;1.92;100.00;98612.56;5036843;28;20056;-77
2021/04/24 00:27:34;;;;;;;26.15;11.57;;;;;;;1.91;100.00;98611.72;5018685;28;20045;-78
2021/04/24 00:30:01;;;;;;;27.92;11.70;;;;;;;1.96;100.00;98619.88;5038497;28;20526;-78
2021/04/24 00:32:27;;;;;;;27.00;11.25;;;;;;;1.93;100.00;98612.34;5054200;28;20123;-78
2021/04/24 00:34:55;;;;;;;31.38;12.13;;;;;;;1.86;100.00;98612.44;5035931;28;20127;-77
2021/04/24 00:37:22;;;;;;;25.88;10.50;;;;;;;1.91;100.00;98601.06;5058609;28;20063;-78
2021/04/24 00:39:48;;;;;;;27.85;11.15;;;;;;;1.81;100.00;98612.34;5056958;28;20047;-78
2021/04/24 00:42:14;;;;;;;26.42;11.13;;;;;;;1.85;100.00;98615.38;5034345;28;20045;-78
2021/04/24 00:44:49;;;;;;;26.73;11.10;;;;;;;1.84;100.00;98608.38;5035265;28;20154;-78
2021/04/24 00:47:19;;;;;;;22.33;9.65;;;;;;;1.82;100.00;98608.63;5036263;28;20610;-78
2021/04/24 00:49:46;;;;;;;26.30;10.65;;;;;;;1.88;100.00;98604.22;5037173;28;20037;-78
2021/04/24 00:52:12;;;;;;;27.50;10.40;;;;;;;1.83;100.00;98609.44;5054003;28;20041;-78
2021/04/24 00:54:38;;;;;;;23.30;10.77;;;;;;;1.78;100.00;98594.13;5037049;28;20495;-77
2021/04/24 00:57:05;;;;;;;25.70;10.57;;;;;;;1.79;100.00;98606.44;5054905;28;20041;-78
2021/04/24 00:59:35;;;;;;;23.98;10.55;;;;;;;1.77;100.00;98599.69;5040134;28;20060;-79
2021/04/24 01:02:03;;;;;;;23.25;10.63;;;;;;;1.76;100.00;98606.06;5034231;28;20048;-77
2021/04/24 01:04:30;;;;;;;25.05;10.63;;;;;;;1.69;100.00;98608.06;5034327;28;20208;-78
2021/04/24 01:06:57;;;;;;;21.77;10.27;;;;;;;1.67;100.00;98604.81;5038339;28;20040;-78
2021/04/24 01:09:25;;;;;;;24.63;10.18;;;;;;;1.62;100.00;98605.53;5019911;28;20049;-78
2021/04/24 01:11:52;;;;;;;20.48;10.25;;;;;;;1.70;100.00;98599.81;5053879;28;20071;-78
2021/04/24 01:14:20;;;;;;;18.70;9.52;;;;;;;1.66;100.00;98603.19;5036101;28;20060;-78
2021/04/24 01:16:46;;;;;;;21.92;9.65;;;;;;;1.61;100.00;98595.91;5036245;28;20041;-77
2021/04/24 01:19:15;;;;;;;28.60;10.57;;;;;;;1.52;100.00;98601.81;5050542;28;20037;-77
2021/04/24 01:21:42;;;;;;;19.67;10.15;;;;;;;1.43;100.00;98596.03;5033707;28;20044;-77
2021/04/24 01:24:09;;;;;;;22.40;9.35;;;;;;;1.36;100.00;98592.66;5037868;28;20052;-79
2021/04/24 01:26:36;;;;;;;22.77;9.55;;;;;;;1.40;100.00;98595.66;5046309;28;20049;-78
2021/04/24 01:29:05;;;;;;;22.77;9.52;;;;;;;1.34;100.00;98589.44;5053741;28;20053;-78
2021/04/24 01:31:39;;;;;;;20.60;9.25;;;;;;;1.30;100.00;98588.25;5037690;28;20405;-78
2021/04/24 01:34:07;;;;;;;24.02;11.05;;;;;;;1.26;100.00;98589.78;5056754;28;20484;-78
2021/04/24 01:36:35;;;;;;;24.73;10.30;;;;;;;1.22;100.00;98591.25;5038365;28;20044;-78
2021/04/24 01:39:05;;;;;;;23.63;11.00;;;;;;;1.13;100.00;98593.47;5055213;28;20037;-78
2021/04/24 01:41:34;;;;;;;23.42;10.93;;;;;;;1.08;100.00;98587.22;5037792;28;20053;-78
2021/04/24 01:44:01;;;;;;;25.73;11.60;;;;;;;1.08;100.00;98598.69;5053882;28;20051;-79
2021/04/24 01:46:28;;;;;;;24.05;10.48;;;;;;;1.04;100.00;98588.69;5054354;28;20041;-78
2021/04/24 01:48:54;;;;;;;22.65;10.43;;;;;;;1.10;100.00;98577.13;5035476;28;20037;-79
2021/04/24 01:51:20;;;;;;;23.27;9.90;;;;;;;1.12;100.00;98575.84;5019402;28;20052;-78
2021/04/24 01:53:48;;;;;;;21.63;10.68;;;;;;;1.12;100.00;98575.84;5035473;28;20037;-79
2021/04/24 01:56:47;;;;;;;22.40;10.13;;;;;;;1.13;100.00;98574.00;5054211;28;20644;-78
2021/04/24 01:59:18;;;;;;;19.30;9.40;;;;;;;0.98;100.00;98574.44;5036246;28;20048;-77
2021/04/24 02:01:48;;;;;;;19.35;9.05;;;;;;;1.01;100.00;98560.63;5062234;28;20052;-78
2021/04/24 02:04:18;;;;;;;21.10;9.13;;;;;;;1.01;100.00;98576.63;5019026;28;20053;-79
2021/04/24 02:06:45;;;;;;;24.70;9.27;;;;;;;0.95;100.00;98561.59;5054514;28;20037;-78
2021/04/24 02:09:13;;;;;;;24.23;10.40;;;;;;;0.90;100.00;98568.63;5051941;28;20044;-78
2021/04/24 02:12:03;;;;;;;22.42;10.10;;;;;;;0.84;100.00;98562.38;5057811;28;20120;-78
2021/04/24 02:14:30;;;;;;;17.55;9.23;;;;;;;0.81;100.00;98576.16;5046687;28;20485;-79
2021/04/24 02:16:57;;;;;;;23.60;9.20;;;;;;;0.72;100.00;98558.06;5021132;28;20041;-76
2021/04/24 02:19:24;;;;;;;19.73;9.70;;;;;;;0.79;100.00;98575.56;5055216;28;20041;-77
2021/04/24 02:21:50;;;;;;;22.08;10.25;;;;;;;0.79;100.00;98574.75;5056121;28;20049;-78
2021/04/24 02:24:16;;;;;;;23.85;10.43;;;;;;;0.75;100.00;98568.28;5036025;28;20041;-77
2021/04/24 02:26:42;;;;;;;21.55;10.27;;;;;;;0.78;100.00;98568.59;5036364;28;20041;-78
2021/04/24 02:29:08;;;;;;;23.65;10.18;;;;;;;0.79;100.00;98564.91;5020000;28;20052;-77
2021/04/24 02:31:34;;;;;;;21.77;10.32;;;;;;;0.82;100.00;98568.97;5038067;28;20045;-77
2021/04/24 02:34:00;;;;;;;21.30;9.68;;;;;;;0.86;100.00;98564.78;5039031;28;20049;-78
2021/04/24 02:36:26;;;;;;;23.98;10.40;;;;;;;0.80;100.00;98569.19;5037413;28;20413;-77
2021/04/24 02:38:53;;;;;;;24.38;9.77;;;;;;;0.79;100.00;98572.09;5055302;28;20740;-78
2021/04/24 02:41:20;;;;;;;24.20;9.65;;;;;;;0.75;100.00;98565.59;5055614;28;20056;-77
2021/04/24 02:43:46;;;;;;;19.88;9.95;;;;;;;0.72;100.00;98560.72;5037583;28;20140;-77
2021/04/24 02:46:13;;;;;;;24.05;10.60;;;;;;;0.78;100.00;98560.63;5037728;28;20045;-78
2021/04/24 02:48:40;;;;;;;26.15;10.68;;;;;;;0.89;100.00;98559.81;5036982;28;20041;-78
2021/04/24 02:51:06;;;;;;;25.88;9.88;;;;;;;0.98;100.00;98558.44;5037478;28;20041;-78
2021/04/24 02:53:32;;;;;;;19.83;9.80;;;;;;;1.05;100.00;98563.66;5037062;28;20059;-77
2021/04/24 02:55:58;;;;;;;23.70;9.80;;;;;;;1.03;100.00;98555.88;5037168;28;20691;-77
2021/04/24 02:58:30;;;;;;;20.70;9.70;;;;;;;1.07;100.00;98558.91;5063252;28;20029;-79
2021/04/24 03:00:57;;;;;;;23.67;9.88;;;;;;;1.01;100.00;98565.16;5055826;28;20048;-77
2021/04/24 03:03:23;;;;;;;29.65;10.75;;;;;;;0.97;100.00;98567.50;5034323;28;20056;-77
2021/04/24 03:05:49;;;;;;;24.23;10.10;;;;;;;1.01;100.00;98570.50;5035933;28;20536;-77
2021/04/24 03:08:15;;;;;;;23.98;10.57;;;;;;;1.02;100.00;98558.78;5054308;28;20468;-78
2021/04/24 03:10:42;;;;;;;26.85;11.52;;;;;;;1.00;100.00;98571.53;5034328;28;20045;-77
2021/04/24 03:13:11;;;;;;;29.73;11.35;;;;;;;1.08;100.00;98568.53;5050407;28;20044;-77
2021/04/24 03:15:37;;;;;;;25.23;11.20;;;;;;;1.07;100.00;98565.06;5033576;28;20048;-78
2021/04/24 03:18:04;;;;;;;25.58;11.40;;;;;;;1.06;100.00;98570.59;5052189;28;20041;-77
2021/04/24 03:20:31;;;;;;;27.95;11.25;;;;;;;1.08;100.00;98565.88;5033614;28;20163;-78
2021/04/24 03:23:00;;;;;;;31.10;12.02;;;;;;;1.09;100.00;98560.31;5032706;28;20475;-77
2021/04/24 03:25:26;;;;;;;35.10;12.27;;;;;;;0.97;100.00;98559.50;5051722;28;20564;-78
2021/04/24 03:27:53;;;;;;;26.42;11.73;;;;;;;1.00;100.00;98564.38;5017099;28;20037;-78
2021/04/24 03:30:19;;;;;;;23.80;11.07;;;;;;;1.01;100.00;98581.16;5033913;28;20045;-77
2021/04/24 03:32:48;;;;;;;24.60;11.85;;;;;;;1.02;100.00;98562.28;5049826;28;20044;-77
2021/04/24 03:35:14;;;;;;;26.60;11.43;;;;;;;1.05;100.00;98569.81;5033899;28;20045;-78
2021/04/24 03:37:40;;;;;;;26.73;12.20;;;;;;;1.08;100.00;98568.53;5033689;28;20028;-78
2021/04/24 03:40:11;;;;;;;28.25;11.02;;;;;;;1.11;100.00;98570.75;5051397;28;20049;-77
2021/04/24 03:42:40;;;;;;;29.15;12.20;;;;;;;1.10;100.00;98561.94;5051679;28;20118;-79
2021/04/24 03:45:17;;;;;;;27.05;11.80;;;;;;;1.12;100.00;98562.50;5019067;28;20114;-79
2021/04/24 03:47:51;;;;;;;22.38;11.13;;;;;;;1.11;100.00;98568.09;5017910;28;20044;-77
2021/04/24 03:50:18;;;;;;;31.80;11.80;;;;;;;1.16;100.00;98566.31;5050504;28;20048;-77
2021/04/24 03:52:45;;;;;;;24.55;11.55;;;;;;;1.19;100.00;98571.19;5032987;28;20037;-77
2021/04/24 03:55:12;;;;;;;24.67;11.23;;;;;;;1.25;100.00;98561.47;5016668;28;20051;-77
2021/04/24 03:57:38;;;;;;;23.95;11.05;;;;;;;1.15;100.00;98561.22;5016781;28;20135;-77
2021/04/24 04:00:08;;;;;;;25.60;10.88;;;;;;;1.19;100.00;98559.72;5032904;28;20041;-77
2021/04/24 04:02:56;;;;;;;25.85;11.32;;;;;;;1.17;100.00;98559.16;5052707;28;20594;-78
2021/04/24 04:05:25;;;;;;;30.42;11.10;;;;;;;1.12;100.00;98565.19;5034293;28;20049;-77
2021/04/24 04:07:52;;;;;;;24.83;11.07;;;;;;;1.19;100.00;98570.38;5033562;28;20051;-77
2021/04/24 04:10:19;;;;;;;22.77;11.30;;;;;;;1.17;100.00;98561.81;5033487;28;20052;-77
2021/04/24 04:12:51;;;;;;;23.15;10.43;;;;;;;1.18;100.00;98574.13;5018446;28;20068;-77
2021/04/24 04:15:19;;;;;;;26.40;11.27;;;;;;;1.14;100.00;98572.94;5055472;28;20412;-78
2021/04/24 04:18:13;;;;;;;20.67;11.05;;;;;;;1.13;100.00;98574.81;5052510;28;20045;-78
2021/04/24 04:20:42;;;;;;;22.17;11.13;;;;;;;1.25;100.00;98580.94;5005804;28;20051;-77
2021/04/24 04:23:09;;;;;;;22.55;10.20;;;;;;;1.26;100.00;98579.88;5014559;28;20084;-77
2021/04/24 04:25:38;;;;;;;28.38;11.82;;;;;;;1.34;100.00;98578.75;5015937;28;20046;-78
2021/04/24 04:28:05;;;;;;;31.60;11.05;;;;;;;1.47;100.00;98583.81;5015240;28;20044;-79
2021/04/24 04:30:32;;;;;;;27.25;11.55;;;;;;;1.46;100.00;98574.22;4997498;28;20657;-78
2021/04/24 04:32:59;;;;;;;27.42;11.18;;;;;;;1.56;100.00;98578.94;5015120;28;20238;-78
2021/04/24 04:35:26;;;;;;;27.10;11.55;;;;;;;1.69;100.00;98576.03;5017545;28;20050;-78
2021/04/24 04:37:55;;;;;;;21.98;10.45;;;;;;;1.82;100.00;98581.13;4999016;28;20100;-79
2021/04/24 04:40:21;;;;;;;27.30;10.80;;;;;;;1.91;100.00;98590.38;4994969;28;20041;-78
2021/04/24 04:42:48;;;;;;;19.60;10.10;;;;;;;2.09;100.00;98584.88;5011748;28;20050;-78
2021/04/24 04:45:17;;;;;;;24.25;10.57;;;;;;;2.18;100.00;98580.78;5012978;28;20049;-78
2021/04/24 04:47:44;;;;;;;29.10;11.15;;;;;;;2.34;100.00;98585.38;5011628;28;20042;-79
2021/04/24 04:50:14;;;;;;;23.38;10.38;;;;;;;2.51;100.00;98583.56;4997303;28;20501;-80
2021/04/24 04:52:40;;;;;;;30.52;10.32;;;;;;;2.62;100.00;98584.56;4999128;28;20095;-78
2021/04/24 04:55:08;;;;;;;27.58;10.35;;;;;;;2.76;100.00;98585.84;4989578;28;20568;-79
2021/04/24 04:57:34;;;;;;;25.75;10.25;;;;;;;2.77;100.00;98592.00;5039071;28;20440;-79
2021/04/24 05:00:00;;;;;;;23.33;9.98;;;;;;;2.94;100.00;98592.88;5030744;28;20049;-78
2021/04/24 05:02:26;;;;;;;21.15;9.98;;;;;;;3.00;100.00;98595.38;4997393;28;20057;-78
2021/04/24 05:04:53;;;;;;;28.90;11.07;;;;;;;3.10;100.00;98603.56;5012258;28;20052;-78
2021/04/24 05:07:19;;;;;;;20.88;10.52;;;;;;;3.16;100.00;98588.41;5031842;28;20038;-79
2021/04/24 05:09:46;;;;;;;26.35;10.77;;;;;;;3.28;100.00;98594.47;5015160;28;20055;-78
2021/04/24 05:12:13;;;;;;;21.90;9.20;;;;;;;3.34;100.00;98593.50;5012504;28;20425;-78
2021/04/24 05:14:39;;;;;;;25.35;10.13;;;;;;;3.26;100.00;98587.75;5029661;28;20045;-78
2021/04/24 05:17:07;;;;;;;28.02;10.50;;;;;;;3.34;100.00;98588.16;4995104;28;20072;-78
2021/04/24 05:19:33;;;;;;;24.73;9.95;;;;;;;3.33;100.00;98597.22;4993711;28;20050;-76
2021/04/24 05:21:59;;;;;;;19.35;9.38;;;;;;;3.47;100.00;98598.50;5009915;28;20124;-79
2021/04/24 05:24:26;;;;;;;24.38;9.63;;;;;;;3.64;100.00;98588.56;5011435;28;20041;-79
2021/04/24 05:26:55;;;;;;;22.65;9.38;;;;;;;3.83;100.00;98599.00;4994179;28;20053;-79
2021/04/24 05:29:21;;;;;;;26.10;9.60;;;;;;;3.99;100.00;98598.97;4977922;28;20053;-78
2021/04/24 05:31:47;;;;;;;16.98;8.60;;;;;;;4.24;100.00;98601.13;5001660;28;20044;-79
2021/04/24 05:34:13;;;;;;;24.92;9.68;;;;;;;4.31;100.00;98601.78;5023845;28;20053;-77
2021/04/24 05:36:40;;;;;;;20.75;9.27;;;;;;;4.35;100.00;98600.19;5027265;28;20071;-77
2021/04/24 05:39:06;;;;;;;19.58;9.25;;;;;;;4.60;100.00;98596.97;5009270;28;20108;-76
2021/04/24 05:41:33;;;;;;;23.55;9.48;;;;;;;4.65;100.00;98603.19;4992777;28;20085;-77
2021/04/24 05:44:01;;;;;;;22.48;8.90;;;;;;;4.96;100.00;98606.97;5026489;28;20064;-77
2021/04/24 05:46:28;;;;;;;21.52;9.63;;;;;;;5.20;100.00;98594.84;5027952;28;20049;-77
2021/04/24 05:48:55;;;;;;;17.70;8.95;;;;;;;5.22;100.00;98602.63;5012282;28;20056;-78
2021/04/24 05:51:22;;;;;;;20.05;8.13;;;;;;;5.24;100.00;98605.91;5013281;28;20072;-77
2021/04/24 05:53:50;;;;;;;20.40;7.05;;;;;;;5.35;100.00;98594.16;5028823;28;20176;-77
2021/04/24 05:56:19;;;;;;;20.15;7.35;;;;;;;5.33;100.00;98596.28;5030523;28;20130;-77
2021/04/24 05:58:47;;;;;;;25.10;6.72;;;;;;;5.38;100.00;98601.69;5011934;28;20115;-77
2021/04/24 06:01:14;;;;;;;19.30;5.68;;;;;;;5.38;100.00;98607.06;5011139;28;20111;-78
2021/04/24 06:03:40;;;;;;;23.52;7.50;;;;;;;5.32;100.00;98608.09;5035962;28;20041;-78
2021/04/24 06:06:06;;;;;;;20.70;6.50;;;;;;;5.20;100.00;98602.09;5049559;28;20049;-77
2021/04/24 06:08:33;;;;;;;25.10;6.35;;;;;;;5.40;100.00;98610.28;5049294;28;20049;-78
2021/04/24 06:10:59;;;;;;;22.95;6.30;;;;;;;5.42;100.00;98617.03;5048863;28;20097;-78
2021/04/24 06:13:28;;;;;;;17.77;5.30;;;;;;;5.45;100.00;98616.50;5014423;28;20520;-78
2021/04/24 06:15:55;;;;;;;19.17;6.28;;;;;;;5.57;100.00;98610.97;5029586;28;20051;-77
2021/04/24 06:18:22;;;;;;;20.92;5.88;;;;;;;5.70;100.00;98620.44;4992903;28;20054;-77
2021/04/24 06:20:49;;;;;;;22.85;5.68;;;;;;;5.79;100.00;98610.81;5017316;28;20042;-76
2021/04/24 06:23:15;;;;;;;23.88;6.00;;;;;;;5.83;100.00;98615.44;4986416;28;20053;-77
2021/04/24 06:25:42;;;;;;;16.13;5.53;;;;;;;5.83;100.00;98607.38;5004184;28;20041;-77
2021/04/24 06:28:11;;;;;;;21.50;5.65;;;;;;;5.84;100.00;98618.91;5018087;28;20066;-78
2021/04/24 06:30:37;;;;;;;17.38;5.40;;;;;;;5.92;100.00;98621.13;5002037;28;20048;-78
2021/04/24 06:33:03;;;;;;;20.95;5.50;;;;;;;6.07;100.00;98621.22;5018130;28;20045;-78
2021/04/24 06:35:29;;;;;;;20.92;5.63;;;;;;;5.96;100.00;98614.19;5028646;28;20460;-79
2021/04/24 06:37:58;;;;;;;22.40;6.50;;;;;;;6.07;100.00;98610.47;5020320;28;20052;-78
2021/04/24 06:40:26;;;;;;;17.52;5.47;;;;;;;5.89;100.00;98618.97;4980671;28;20053;-78
2021/04/24 06:42:53;;;;;;;21.60;6.30;;;;;;;5.95;100.00;98617.94;5011307;28;20066;-78
2021/04/24 06:45:19;;;;;;;18.33;5.65;;;;;;;6.17;100.00;98608.63;5030393;28;20730;-78
2021/04/24 06:47:47;;;;;;;21.83;6.07;;;;;;;6.44;100.00;98615.72;5050300;28;20045;-77
2021/04/24 06:50:20;;;;;;;19.58;5.47;;;;;;;6.18;100.00;98609.44;5048362;28;20052;-78
2021/04/24 06:52:46;;;;;;;23.98;6.45;;;;;;;6.26;100.00;98604.38;5014417;28;20158;-76
2021/04/24 06:55:17;;;;;;;19.55;6.43;;;;;;;6.50;100.00;98604.75;5050032;28;20049;-77
2021/04/24 06:57:45;;;;;;;18.58;6.38;;;;;;;6.70;100.00;98601.28;5049648;28;20048;-77
2021/04/24 07:00:14;;;;;;;17.80;5.93;;;;;;;6.93;100.00;98605.34;5041616;28;20048;-79
2021/04/24 07:02:41;;;;;;;16.58;6.40;;;;;;;6.85;100.00;98601.31;5053603;28;20135;-78
2021/04/24 07:05:10;;;;;;;20.02;6.20;;;;;;;6.80;100.00;98602.13;5007490;28;20531;-77
2021/04/24 07:07:37;;;;;;;20.42;6.35;;;;;;;6.85;100.00;98601.31;5013422;28;20069;-78
2021/04/24 07:10:07;;;;;;;19.05;6.68;;;;;;;6.68;100.00;98603.44;5013808;28;20056;-78
2021/04/24 07:12:35;;;;;;;20.75;6.07;;;;;;;6.92;100.00;98596.47;4991810;28;20052;-78
2021/04/24 07:15:02;;;;;;;19.73;6.20;;;;;;;7.00;100.00;98604.00;5033415;28;20057;-82
2021/04/24 07:17:28;;;;;;;18.40;6.18;;;;;;;7.07;100.00;98601.84;5031338;28;20041;-82
2021/04/24 07:19:54;;;;;;;20.67;7.28;;;;;;;7.16;100.00;98600.25;5040332;28;20099;-79
2021/04/24 07:22:20;;;;;;;22.05;6.85;;;;;;;7.32;100.00;98599.19;5013824;28;20559;-77
2021/04/24 07:24:47;;;;;;;18.83;6.20;;;;;;;7.08;100.00;98599.97;5029243;28;20056;-78
2021/04/24 07:27:14;;;;;;;21.30;6.47;;;;;;;7.21;100.00;98602.94;5029267;28;20084;-78
2021/04/24 07:29:43;;;;;;;20.58;6.32;;;;;;;7.45;100.00;98612.13;5029346;28;20049;-77
2021/04/24 07:32:09;;;;;;;20.83;6.60;;;;;;;7.66;100.00;98606.69;5026828;28;20052;-76
2021/04/24 07:34:36;;;;;;;17.70;6.28;;;;;;;8.01;100.00;98612.00;5013779;28;20076;-76
2021/04/24 07:37:04;;;;;;;19.08;6.80;;;;;;;8.04;100.00;98611.47;5030312;28;20059;-78
2021/04/24 07:39:31;;;;;;;23.20;7.38;;;;;;;7.98;100.00;98615.25;5030301;28;20843;-77
2021/04/24 07:41:57;;;;;;;21.38;6.75;;;;;;;8.11;100.00;98604.69;5047021;28;20041;-77
2021/04/24 07:44:26;;;;;;;22.58;7.68;;;;;;;8.03;100.00;98615.22;5012067;28;20049;-77
2021/04/24 07:46:52;;;;;;;17.38;7.47;;;;;;;8.05;100.00;98618.47;5047071;28;20056;-77
2021/04/24 07:49:20;;;;;;;21.17;7.30;;;;;;;8.05;100.00;98621.97;5029664;28;20052;-77
2021/04/24 07:51:46;;;;;;;24.25;7.70;;;;;;;8.45;100.00;98623.75;5038229;28;20059;-78
2021/04/24 07:54:14;;;;;;;23.42;7.88;;;;;;;8.53;100.00;98617.78;5027307;28;20691;-77
2021/04/24 07:56:44;;;;;;;15.52;6.72;;;;;;;8.90;100.00;98619.19;5047719;28;20512;-78
2021/04/24 07:59:11;;;;;;;19.02;7.03;;;;;;;9.23;100.00;98616.53;5029780;28;20056;-77
2021/04/24 08:01:38;;;;;;;22.00;7.47;;;;;;;9.17;100.00;98614.13;5029882;28;20531;-78
2021/04/24 08:04:06;;;;;;;19.42;6.78;;;;;;;9.02;100.00;98614.25;5047360;28;20049;-78
2021/04/24 08:06:35;;;;;;;21.25;7.35;;;;;;;9.29;100.00;98611.91;5048209;28;20144;-78
2021/04/24 08:09:03;;;;;;;22.20;7.15;;;;;;;9.09;100.00;98615.53;5028254;28;20053;-78
2021/04/24 08:11:29;;;;;;;20.27;7.85;;;;;;;9.04;100.00;98617.47;5012684;28;20463;-77
2021/04/24 08:13:55;;;;;;;19.92;6.75;;;;;;;8.54;100.00;98619.38;5049411;28;20045;-77
2021/04/24 08:16:21;;;;;;;17.52;6.38;;;;;;;9.15;100.00;98617.13;5031447;28;20053;-79
2021/04/24 08:18:48;;;;;;;16.98;6.97;;;;;;;9.32;100.00;98624.81;5031003;28;20045;-79
2021/04/24 08:21:15;;;;;;;18.52;7.07;;;;;;;9.08;100.00;98615.84;5030999;28;20127;-79
2021/04/24 08:23:42;;;;;;;17.45;6.63;;;;;;;9.30;100.00;98618.91;5031578;28;20055;-80
2021/04/24 08:26:08;;;;;;;14.25;7.35;;;;;;;9.40;100.00;98616.94;5005500;28;20045;-79
2021/04/24 08:28:35;;;;;;;23.15;6.72;;;;;;;9.30;100.00;98611.59;5018710;28;20095;-79
2021/04/24 08:31:02;;;;;;;22.45;7.05;;;;;;;9.38;100.00;98608.31;5038794;28;20080;-79
2021/04/24 08:33:28;;;;;;;20.20;7.30;;;;;;;9.59;100.00;98622.44;5006909;28;20437;-79
2021/04/24 08:35:55;;;;;;;18.40;6.78;;;;;;;9.37;100.00;98620.19;5040727;28;20101;-80
2021/04/24 08:38:22;;;;;;;16.75;6.45;;;;;;;9.29;100.00;98620.00;4993714;28;20059;-80
2021/04/24 08:40:48;;;;;;;20.55;6.40;;;;;;;10.07;100.00;98609.78;5038554;28;20049;-80
2021/04/24 08:43:15;;;;;;;17.23;6.20;;;;;;;10.48;100.00;98610.13;5006345;28;20049;-77
2021/04/24 08:45:46;;;;;;;16.17;6.38;;;;;;;10.43;100.00;98607.50;5024155;28;20483;-78
2021/04/24 08:48:12;;;;;;;20.13;6.97;;;;;;;10.54;100.00;98601.69;5037428;28;20069;-78
2021/04/24 08:50:40;;;;;;;22.52;6.60;;;;;;;10.26;98.68;98599.88;5018301;28;20491;-80
2021/04/24 08:53:06;;;;;;;21.25;6.10;;;;;;;10.76;87.07;98598.41;5037746;28;20686;-80
2021/04/24 08:55:34;;;;;;;18.90;6.45;;;;;;;10.59;85.95;98598.09;5013612;28;20075;-78
2021/04/24 08:58:02;;;;;;;21.60;7.00;;;;;;;10.10;95.63;98601.09;5032509;28;20057;-78
2021/04/24 09:00:31;;;;;;;15.85;6.13;;;;;;;9.94;86.85;98592.34;5056629;28;20048;-79
2021/04/24 09:02:58;;;;;;;20.67;6.57;;;;;;;9.75;96.34;98601.47;5054725;28;20091;-79
2021/04/24 09:05:26;;;;;;;18.10;6.47;;;;;;;9.94;96.36;98595.03;5037002;28;20067;-80
2021/04/24 09:08:11;;;;;;;14.13;6.45;;;;;;;10.05;94.18;98595.75;5037044;28;20369;-81
2021/04/24 09:10:43;;;;;;;14.85;5.88;;;;;;;10.30;92.18;98591.97;5052977;28;20049;-79
2021/04/24 09:13:21;;;;;;;20.20;6.38;;;;;;;10.57;84.90;98598.38;5051842;28;20618;-79
2021/04/24 09:15:47;;;;;;;21.25;6.07;;;;;;;11.39;81.41;98577.09;5035124;28;20776;-78
2021/04/24 09:18:15;;;;;;;21.40;5.93;;;;;;;11.31;88.75;98585.91;5033750;28;20047;-82
2021/04/24 09:20:53;;;;;;;12.88;6.13;;;;;;;11.17;78.66;98596.69;5014664;28;20057;-79
2021/04/24 09:23:28;;;;;;;15.63;6.65;;;;;;;11.83;74.79;98582.03;5029741;28;20049;-78
2021/04/24 09:26:00;;;;;;;16.80;6.50;;;;;;;12.03;66.14;98580.84;5045283;28;20052;-79
2021/04/24 09:28:41;;;;;;;17.92;6.00;;;;;;;11.60;69.25;98589.22;5030121;28;20563;-79
2021/04/24 09:31:25;;;;;;;16.23;5.72;;;;;;;11.35;69.49;98581.53;5029429;28;20068;-79
2021/04/24 09:34:00;;;;;;;14.20;5.40;;;;;;;11.24;67.90;98578.16;5014839;28;20049;-81
2021/04/24 09:36:38;;;;;;;18.75;6.20;;;;;;;11.54;69.68;98581.44;4995796;28;20049;-72
2021/04/24 09:39:09;;;;;;;15.65;5.93;;;;;;;11.92;66.87;98582.16;5008322;28;20059;-73
2021/04/24 09:41:38;;;;;;;15.43;5.82;;;;;;;11.19;68.83;98580.97;5010930;28;20053;-78
2021/04/24 09:44:13;;;;;;;15.77;6.20;;;;;;;11.73;67.36;98571.38;4995550;28;20053;-77
2021/04/24 09:46:45;;;;;;;30.40;6.85;;;;;;;12.30;68.46;98580.88;5028425;28;20517;-77
2021/04/24 09:49:20;;;;;;;17.65;6.63;;;;;;;12.61;63.57;98564.72;5048731;28;20060;-76
2021/04/24 09:52:07;;;;;;;17.90;6.38;;;;;;;12.22;63.19;98565.28;5051892;28;20408;-75
2021/04/24 09:54:33;;;;;;;22.38;6.90;;;;;;;12.56;64.98;98578.41;5044478;28;20099;-73
2021/04/24 09:57:21;;;;;;;21.00;5.95;;;;;;;12.17;64.05;98568.09;5027719;28;20041;-74
2021/04/24 10:00:03;;;;;;;19.00;6.80;;;;;;;12.14;66.54;98566.78;5044086;28;20053;-73
2021/04/24 10:02:40;;;;;;;16.15;6.78;;;;;;;12.72;64.15;98564.22;5043398;28;20455;-74
2021/04/24 10:05:22;;;;;;;14.70;6.50;;;;;;;13.31;63.43;98563.13;5046446;28;20055;-73
2021/04/24 10:07:51;;;;;;;20.80;6.70;;;;;;;13.55;59.34;98562.78;5041147;28;20040;-76
2021/04/24 10:10:23;;;;;;;17.75;6.85;;;;;;;13.22;59.20;98564.97;5008793;28;20049;-79
2021/04/24 10:12:57;;;;;;;18.10;6.63;;;;;;;13.25;58.97;98566.25;5028362;28;20045;-78
2021/04/24 10:15:49;;;;;;;15.27;6.82;;;;;;;13.19;59.30;98562.06;5026437;28;20132;-78
2021/04/24 10:18:16;;;;;;;14.52;6.90;;;;;;;13.46;60.66;98545.59;5002092;28;20053;-77
2021/04/24 10:20:46;;;;;;;19.90;7.18;;;;;;;13.01;62.97;98553.72;5046706;28;20064;-77
2021/04/24 10:23:16;;;;;;;22.65;6.43;;;;;;;12.92;60.68;98552.88;5057492;28;20048;-78
2021/04/24 10:25:46;;;;;;;15.02;6.75;;;;;;;13.38;62.98;98530.84;5035503;28;20142;-79
2021/04/24 10:28:15;;;;;;;18.67;6.68;;;;;;;14.78;57.88;98547.06;5045920;28;20049;-79
2021/04/24 10:30:42;;;;;;;17.30;7.32;;;;;;;14.98;54.62;98540.97;5033961;28;20057;-78
2021/04/24 10:33:08;;;;;;;19.67;7.10;;;;;;;14.60;55.28;98539.16;5032720;28;20049;-77
2021/04/24 10:35:34;;;;;;;17.70;6.88;;;;;;;15.62;55.18;98541.03;5033850;28;20079;-78
2021/04/24 10:38:02;;;;;;;13.90;6.68;;;;;;;16.06;49.87;98537.84;5049970;28;20029;-79
2021/04/24 10:40:33;;;;;;;21.52;7.22;;;;;;;15.67;50.17;98527.22;5016294;28;20051;-78
2021/04/24 10:43:00;;;;;;;15.88;7.53;;;;;;;14.62;52.42;98528.75;5012252;28;20070;-78
2021/04/24 10:45:29;;;;;;;18.38;7.35;;;;;;;14.85;51.14;98520.09;5011668;28;20050;-77
2021/04/24 10:47:58;;;;;;;16.67;7.57;;;;;;;14.35;54.40;98517.00;5016972;28;20049;-78
2021/04/24 10:50:40;;;;;;;18.88;7.68;;;;;;;12.90;58.13;98519.78;5029524;28;20128;-78
2021/04/24 10:53:26;;;;;;;16.63;7.50;;;;;;;11.99;64.59;98526.38;5032005;28;20064;-78
2021/04/24 10:55:54;;;;;;;20.90;8.18;;;;;;;12.51;70.81;98530.44;5032863;28;20416;-78
2021/04/24 10:58:25;;;;;;;20.75;7.22;;;;;;;14.19;56.55;98529.44;5050832;28;20408;-78
2021/04/24 11:01:00;;;;;;;17.77;7.60;;;;;;;14.14;54.73;98515.94;5016540;28;20458;-78
2021/04/24 11:03:35;;;;;;;15.77;7.80;;;;;;;13.96;55.16;98519.72;5011903;28;20037;-77
2021/04/24 11:06:28;;;;;;;20.55;8.57;;;;;;;12.46;61.07;98523.19;5028895;28;20060;-79
2021/04/24 11:09:32;;;;;;;19.73;8.75;;;;;;;13.52;63.99;98517.16;5034151;28;20053;-78
2021/04/24 11:11:59;;;;;;;18.33;9.25;;;;;;;13.61;61.40;98518.00;4947770;29;20051;-78
2021/04/24 11:14:26;;;;;;;17.48;8.73;;;;;;;13.98;56.39;98512.06;5021400;28;20034;-78
2021/04/24 11:16:54;;;;;;;19.35;8.30;;;;;;;14.41;54.28;98514.94;5025714;28;20042;-78
2021/04/24 11:19:41;;;;;;;19.75;7.88;;;;;;;14.84;51.53;98507.59;5026757;28;20587;-79
2021/04/24 11:22:36;;;;;;;21.02;8.25;;;;;;;14.88;51.58;98518.66;4995308;28;20060;-79
2021/04/24 11:25:23;;;;;;;16.02;7.65;;;;;;;16.92;45.59;98507.25;5034331;28;20076;-79
2021/04/24 11:28:13;;;;;;;21.35;8.52;;;;;;;16.66;44.79;98509.38;5041001;28;20021;-79
2021/04/24 11:31:00;;;;;;;22.30;8.10;;;;;;;16.34;45.82;98510.03;5047995;28;20053;-78